createdAt,value
2023-03-17T00:39:00.722Z,1.69
2023-03-17T00:43:00.692Z,1.69
2023-03-17T00:47:00.775Z,1.72
2023-03-17T00:51:00.697Z,1.65
2023-03-17T00:55:00.678Z,1.66
2023-03-17T00:59:00.727Z,1.67
2023-03-17T01:03:00.679Z,1.66
2023-03-17T01:07:00.638Z,1.66
2023-03-17T01:11:00.681Z,1.67
2023-03-17T01:15:00.705Z,1.67
2023-03-17T01:19:00.780Z,1.68
2023-03-17T01:23:00.712Z,1.66
2023-03-17T01:27:00.682Z,1.66
2023-03-17T01:31:00.700Z,1.66
2023-03-17T01:35:00.701Z,1.66
2023-03-17T01:39:00.708Z,1.65
2023-03-17T01:43:00.784Z,1.69
2023-03-17T01:47:00.756Z,1.71
2023-03-17T01:51:00.784Z,1.64
2023-03-17T01:55:00.774Z,1.67
2023-03-17T01:59:00.843Z,1.65
2023-03-17T02:03:00.870Z,1.67
2023-03-17T02:07:00.906Z,1.67
2023-03-17T02:11:00.982Z,1.65
2023-03-17T02:15:01.016Z,1.69
2023-03-17T02:19:01.103Z,1.71
2023-03-17T02:23:01.168Z,1.67
2023-03-17T02:27:01.213Z,1.69
2023-03-17T02:31:01.312Z,1.68
2023-03-17T02:35:01.281Z,1.65
2023-03-17T02:39:01.402Z,1.67
2023-03-17T02:43:01.451Z,1.69
2023-03-17T02:47:01.539Z,1.66
2023-03-17T02:51:01.494Z,1.69
2023-03-17T02:55:01.529Z,1.70
2023-03-17T02:59:01.640Z,1.70
2023-03-17T03:03:01.648Z,1.69
2023-03-17T03:07:01.721Z,1.68
2023-03-17T03:11:01.840Z,1.68
2023-03-17T03:15:02.313Z,1.65
2023-03-17T03:19:01.893Z,1.68
2023-03-17T03:23:01.948Z,1.67
2023-03-17T03:27:02.070Z,1.68
2023-03-17T03:31:02.173Z,1.66
2023-03-17T03:35:02.204Z,1.68
2023-03-17T03:39:02.346Z,1.66
2023-03-17T03:43:10.186Z,1.67
2023-03-17T03:47:03.372Z,1.65
2023-03-17T03:51:02.315Z,1.66
2023-03-17T03:55:02.264Z,1.66
2023-03-17T03:59:02.232Z,1.65
2023-03-17T04:03:02.244Z,1.63
2023-03-17T04:07:02.316Z,1.65
2023-03-17T04:11:02.400Z,1.65
2023-03-17T04:15:02.543Z,1.66
2023-03-17T04:19:02.740Z,1.63
2023-03-17T04:23:02.740Z,1.65
2023-03-17T04:27:05.489Z,1.66
2023-03-17T04:31:02.840Z,1.67
2023-03-17T04:35:02.846Z,1.65
2023-03-17T04:39:02.765Z,1.65
2023-03-17T04:43:03.622Z,1.64
2023-03-17T04:47:02.694Z,1.64
2023-03-17T04:51:02.637Z,1.65
2023-03-17T04:55:02.599Z,1.65
2023-03-17T04:59:02.562Z,1.64
2023-03-17T05:03:02.871Z,1.62
2023-03-17T05:07:02.557Z,1.32
2023-03-17T05:11:02.481Z,1.17
2023-03-17T05:15:02.401Z,1.05
2023-03-17T05:19:02.877Z,0.93
2023-03-17T05:23:02.329Z,0.85
2023-03-17T05:27:02.388Z,0.84
2023-03-17T05:31:02.463Z,0.81
2023-03-17T05:35:02.596Z,0.82
2023-03-17T05:39:02.683Z,0.88
2023-03-17T05:43:02.850Z,0.90
2023-03-17T05:47:03.012Z,0.94
2023-03-17T05:51:03.146Z,0.97
2023-03-17T05:55:03.240Z,1.01
2023-03-17T05:59:03.337Z,1.05
2023-03-17T06:03:03.427Z,1.07
2023-03-17T06:07:03.575Z,1.11
2023-03-17T06:11:03.574Z,1.14
2023-03-17T06:15:03.658Z,1.17
2023-03-17T06:19:03.790Z,1.20
2023-03-17T06:23:05.913Z,1.24
2023-03-17T06:27:03.999Z,1.25
2023-03-17T06:31:07.032Z,1.28
2023-03-17T06:35:03.999Z,0.97
2023-03-17T06:39:03.991Z,0.91
2023-03-17T06:43:03.885Z,0.84
2023-03-17T06:47:03.924Z,0.89
2023-03-17T06:51:03.848Z,0.96
2023-03-17T06:55:03.831Z,1.07
2023-03-17T06:59:03.788Z,1.16
2023-03-17T07:03:03.768Z,1.17
2023-03-17T07:07:03.761Z,1.18
2023-03-17T07:11:03.672Z,1.20
2023-03-17T07:15:03.601Z,1.14
2023-03-17T07:19:03.576Z,1.12
2023-03-17T07:23:03.553Z,1.12
2023-03-17T07:27:03.694Z,1.20
2023-03-17T07:31:03.673Z,1.10
2023-03-17T07:35:03.629Z,1.16
2023-03-17T07:39:03.554Z,0.99
2023-03-17T07:43:03.526Z,0.88
2023-03-17T07:47:03.490Z,0.90
2023-03-17T07:51:03.465Z,1.03
2023-03-17T07:55:03.405Z,1.17
2023-03-17T07:59:03.396Z,1.22
2023-03-17T08:03:10.380Z,1.28
2023-03-17T08:07:04.312Z,1.15
2023-03-17T08:11:03.333Z,1.14
2023-03-17T08:15:03.241Z,1.08
2023-03-17T08:19:03.164Z,1.03
2023-03-17T08:23:03.120Z,1.05
2023-03-17T08:27:03.056Z,1.08
2023-03-17T08:31:03.220Z,1.12
2023-03-17T08:35:03.150Z,1.11
2023-03-17T08:39:03.153Z,1.10
2023-03-17T08:43:03.067Z,1.05
2023-03-17T08:47:03.087Z,1.17
2023-03-17T08:51:03.017Z,1.26
2023-03-17T08:55:02.969Z,1.35
2023-03-17T08:59:02.923Z,1.36
2023-03-17T09:03:02.941Z,1.39
2023-03-17T09:07:04.349Z,1.42
2023-03-17T09:11:02.879Z,1.46
2023-03-17T09:15:02.781Z,1.53
2023-03-17T09:19:02.729Z,1.51
2023-03-17T09:23:02.730Z,1.56
2023-03-17T09:27:02.671Z,1.55
2023-03-17T09:31:02.679Z,1.56
2023-03-17T09:35:02.611Z,1.57
2023-03-17T09:39:02.546Z,1.59
2023-03-17T09:43:02.748Z,1.62
2023-03-17T09:47:02.685Z,1.63
2023-03-17T09:51:03.003Z,1.64
2023-03-17T09:55:02.581Z,1.67
2023-03-17T09:59:02.617Z,1.68
2023-03-17T10:03:02.594Z,1.70
2023-03-17T10:07:02.523Z,1.71
2023-03-17T10:11:02.468Z,1.72
2023-03-17T10:15:02.474Z,1.71
2023-03-17T10:19:02.481Z,1.71
2023-03-17T10:23:02.377Z,1.71
2023-03-17T10:27:02.320Z,1.65
2023-03-17T10:31:02.407Z,1.66
2023-03-17T10:35:02.284Z,1.69
2023-03-17T10:39:02.247Z,1.71
2023-03-17T10:43:02.175Z,1.61
2023-03-17T10:47:02.243Z,1.64
2023-03-17T10:51:02.154Z,1.63
2023-03-17T10:55:02.272Z,1.63
2023-03-17T10:59:02.550Z,1.60
2023-03-17T11:03:02.153Z,1.59
2023-03-17T11:07:02.227Z,1.59
2023-03-17T11:11:02.581Z,1.59
2023-03-17T11:15:02.085Z,1.57
2023-03-17T11:19:02.077Z,0.34
2023-03-17T11:23:02.135Z,0.34
2023-03-17T11:27:02.008Z,0.41
2023-03-17T11:31:01.910Z,0.92
2023-03-17T11:35:01.917Z,1.08
2023-03-17T11:39:01.894Z,0.77
2023-03-17T11:43:01.838Z,0.82
2023-03-17T11:47:01.900Z,1.10
2023-03-17T11:51:02.118Z,1.24
2023-03-17T11:55:02.134Z,0.46
2023-03-17T11:59:02.221Z,0.52
2023-03-17T12:03:02.430Z,0.37
2023-03-17T12:07:02.401Z,0.57
2023-03-17T12:11:02.522Z,0.54
2023-03-17T12:15:02.528Z,0.73
2023-03-17T12:19:02.628Z,1.34
2023-03-17T12:23:02.587Z,1.74
2023-03-17T12:27:02.740Z,3.33
2023-03-17T12:31:02.675Z,4.82
2023-03-17T12:35:02.798Z,4.73
2023-03-17T12:39:02.970Z,4.30
2023-03-17T12:43:02.926Z,3.42
2023-03-17T12:47:02.888Z,3.25
2023-03-17T12:51:02.879Z,3.13
2023-03-17T12:55:02.809Z,3.14
2023-03-17T12:59:02.798Z,3.28
2023-03-17T13:03:02.795Z,1.17
2023-03-17T13:07:02.741Z,1.44
2023-03-17T13:11:02.665Z,3.40
2023-03-17T13:15:02.669Z,4.93
2023-03-17T13:19:02.608Z,5.79
2023-03-17T13:23:02.585Z,6.84
2023-03-17T13:27:02.553Z,4.74
2023-03-17T13:31:02.490Z,3.53
2023-03-17T13:35:02.456Z,3.99
2023-03-17T13:39:18.139Z,3.33
2023-03-17T13:43:03.547Z,3.37
2023-03-17T13:47:02.568Z,3.21
2023-03-17T13:51:02.488Z,3.19
2023-03-17T13:55:02.425Z,3.55
2023-03-17T13:59:02.528Z,3.95
2023-03-17T14:03:02.528Z,3.58
2023-03-17T14:07:02.469Z,3.20
2023-03-17T14:11:02.440Z,2.34
2023-03-17T14:15:02.451Z,3.42
2023-03-17T14:19:02.501Z,3.76
2023-03-17T14:23:02.524Z,3.97
2023-03-17T14:27:02.549Z,4.72
2023-03-17T14:31:02.574Z,3.57
2023-03-17T14:35:02.614Z,4.14
2023-03-17T14:39:02.615Z,3.90
2023-03-17T14:43:02.619Z,4.92
2023-03-17T14:47:02.600Z,4.62
2023-03-17T14:51:02.583Z,5.87
2023-03-17T14:55:02.587Z,6.94
2023-03-17T14:59:02.562Z,6.23
2023-03-17T15:03:02.568Z,8.20
2023-03-17T15:07:02.642Z,7.02
2023-03-17T15:11:02.645Z,7.08
2023-03-17T15:15:02.674Z,7.21
2023-03-17T15:19:02.712Z,6.72
2023-03-17T15:23:02.735Z,6.76
2023-03-17T15:27:02.759Z,7.88
2023-03-17T15:31:02.886Z,10.48
2023-03-17T15:35:02.869Z,13.19
2023-03-17T15:39:02.941Z,12.89
2023-03-17T15:43:02.988Z,16.32
2023-03-17T15:47:03.065Z,14.15
2023-03-17T15:51:03.116Z,17.01
2023-03-17T15:55:05.094Z,17.71
2023-03-17T15:59:03.049Z,20.10
2023-03-17T16:03:02.972Z,21.69
2023-03-17T16:07:02.968Z,21.93
2023-03-17T16:11:02.906Z,22.35
2023-03-17T16:15:10.353Z,24.54
2023-03-17T16:19:03.801Z,25.34
2023-03-17T16:23:02.816Z,26.10
2023-03-17T16:27:02.752Z,26.24
2023-03-17T16:31:02.787Z,26.68
2023-03-17T16:35:02.754Z,26.56
2023-03-17T16:39:02.883Z,25.35
2023-03-17T16:43:03.942Z,24.60
2023-03-17T16:47:03.156Z,24.71
2023-03-17T16:51:02.906Z,25.40
2023-03-17T16:55:02.884Z,27.04
2023-03-17T16:59:02.925Z,25.42
2023-03-17T17:03:02.912Z,25.79
2023-03-17T17:07:02.882Z,24.86
2023-03-17T17:11:02.740Z,26.19
2023-03-17T17:15:02.736Z,26.06
2023-03-17T17:19:02.745Z,25.33
2023-03-17T17:23:02.795Z,24.06
2023-03-17T17:27:02.905Z,24.89
2023-03-17T17:31:03.149Z,24.66
2023-03-17T17:35:03.071Z,26.45
2023-03-17T17:39:03.020Z,26.40
2023-03-17T17:43:03.015Z,24.98
2023-03-17T17:47:02.994Z,24.85
2023-03-17T17:51:02.902Z,24.54
2023-03-17T17:55:02.888Z,24.82
2023-03-17T17:59:02.849Z,24.43
2023-03-17T18:03:02.841Z,23.83
2023-03-17T18:07:02.824Z,24.31
2023-03-17T18:11:02.835Z,23.67
2023-03-17T18:15:03.054Z,22.53
2023-03-17T18:19:03.099Z,22.03
2023-03-17T18:23:03.023Z,22.22
2023-03-17T18:27:02.944Z,21.40
2023-03-17T18:31:02.918Z,22.12
2023-03-17T18:35:02.888Z,19.52
2023-03-17T18:39:02.831Z,24.00
2023-03-17T18:43:02.810Z,16.50
2023-03-17T18:47:02.781Z,11.35
2023-03-17T18:51:02.746Z,9.82
2023-03-17T18:55:02.715Z,6.84
2023-03-17T18:59:02.692Z,6.17
2023-03-17T19:03:02.883Z,5.23
2023-03-17T19:07:02.962Z,4.43
2023-03-17T19:11:03.297Z,3.90
2023-03-17T19:15:03.194Z,7.28
2023-03-17T19:19:03.172Z,7.33
2023-03-17T19:23:03.176Z,7.48
2023-03-17T19:27:03.178Z,8.46
2023-03-17T19:31:03.222Z,9.67
2023-03-17T19:35:03.160Z,10.74
2023-03-17T19:39:03.197Z,12.11
2023-03-17T19:43:03.193Z,13.37
2023-03-17T19:47:03.114Z,14.96
2023-03-17T19:51:03.086Z,15.64
2023-03-17T19:55:03.126Z,15.67
2023-03-17T19:59:03.093Z,17.57
2023-03-17T20:03:03.083Z,16.97
2023-03-17T20:07:03.056Z,18.63
2023-03-17T20:11:03.019Z,18.06
2023-03-17T20:15:03.035Z,19.76
2023-03-17T20:19:03.043Z,19.62
2023-03-17T20:23:03.000Z,19.95
2023-03-17T20:27:03.017Z,20.89
2023-03-17T20:31:03.188Z,21.48
2023-03-17T20:35:03.008Z,22.94
2023-03-17T20:39:02.969Z,24.00
2023-03-17T20:43:02.964Z,23.88
2023-03-17T20:47:02.947Z,24.31
2023-03-17T20:51:02.972Z,24.68
2023-03-17T20:55:02.989Z,24.84
2023-03-17T20:59:03.059Z,25.27
2023-03-17T21:03:03.086Z,25.15
2023-03-17T21:07:03.098Z,25.25
2023-03-17T21:11:03.123Z,24.95
2023-03-17T21:15:03.209Z,24.80
2023-03-17T21:19:03.265Z,24.87
2023-03-17T21:23:03.383Z,25.47
2023-03-17T21:27:03.432Z,25.59
2023-03-17T21:31:03.500Z,24.81
2023-03-17T21:35:03.592Z,24.49
2023-03-17T21:39:03.602Z,24.30
2023-03-17T21:43:03.605Z,24.38
2023-03-17T21:47:03.750Z,23.73
2023-03-17T21:51:03.789Z,23.57
2023-03-17T21:55:03.916Z,23.63
2023-03-17T21:59:04.022Z,23.57
2023-03-17T22:03:04.436Z,22.88
2023-03-17T22:07:04.262Z,22.98
2023-03-17T22:11:04.360Z,22.61
2023-03-17T22:15:04.517Z,22.66
2023-03-17T22:19:04.584Z,21.99
2023-03-17T22:23:04.632Z,21.56
2023-03-17T22:27:04.679Z,22.16
2023-03-17T22:31:04.753Z,21.69
2023-03-17T22:35:04.864Z,20.86
2023-03-17T22:39:04.970Z,20.92
2023-03-17T22:43:05.117Z,20.60
2023-03-17T22:47:05.123Z,20.40
2023-03-17T22:51:05.179Z,20.17
2023-03-17T22:55:05.267Z,20.28
2023-03-17T22:59:05.304Z,19.58
2023-03-17T23:03:05.337Z,19.32
2023-03-17T23:07:05.466Z,19.32
2023-03-17T23:11:05.518Z,19.39
2023-03-17T23:15:05.707Z,18.70
2023-03-17T23:19:05.753Z,18.63
2023-03-17T23:23:05.878Z,19.01
2023-03-17T23:27:05.980Z,17.91
2023-03-17T23:31:06.198Z,18.33
2023-03-17T23:35:06.239Z,17.42
2023-03-17T23:39:06.391Z,17.54
2023-03-17T23:43:06.547Z,17.03
2023-03-17T23:47:06.730Z,17.24
2023-03-17T23:51:06.751Z,16.85
2023-03-17T23:55:07.020Z,16.99
2023-03-17T23:59:07.073Z,16.26
